createdAt,value
2023-11-18T00:00:25.252Z,75.32
2023-11-18T00:01:25.303Z,75.46
2023-11-18T00:02:25.394Z,75.46
2023-11-18T00:03:25.343Z,75.57
2023-11-18T00:04:25.267Z,75.67
2023-11-18T00:05:25.192Z,75.78
2023-11-18T00:06:25.184Z,75.88
2023-11-18T00:07:25.211Z,75.88
2023-11-18T00:08:25.218Z,75.98
2023-11-18T00:09:25.156Z,76.09
2023-11-18T00:10:25.235Z,76.09
2023-11-18T00:11:25.183Z,76.18
2023-11-18T00:12:25.146Z,76.29
2023-11-18T00:13:25.192Z,76.64
2023-11-18T00:14:25.120Z,76.64
2023-11-18T00:15:25.086Z,76.74
2023-11-18T00:16:25.141Z,76.84
2023-11-18T00:17:25.054Z,77.05
2023-11-18T00:18:25.075Z,77.36
2023-11-18T00:19:25.152Z,77.36
2023-11-18T00:20:25.041Z,77.36
2023-11-18T00:21:25.023Z,77.36
2023-11-18T00:22:25.035Z,77.50
2023-11-18T00:23:24.976Z,77.50
2023-11-18T00:24:24.983Z,77.70
2023-11-18T00:25:25.069Z,77.81
2023-11-18T00:26:24.960Z,77.91
2023-11-18T00:27:24.939Z,77.91
2023-11-18T00:28:25.024Z,78.02
2023-11-18T00:29:24.945Z,78.12
2023-11-18T00:30:24.947Z,78.22
2023-11-18T00:31:24.992Z,78.22
2023-11-18T00:32:25.128Z,78.22
2023-11-18T00:33:24.938Z,78.22
2023-11-18T00:34:24.951Z,78.43
2023-11-18T00:35:24.860Z,78.47
2023-11-18T00:36:24.911Z,78.88
2023-11-18T00:37:24.858Z,78.99
2023-11-18T00:38:24.835Z,78.99
2023-11-18T00:39:24.809Z,79.19
2023-11-18T00:40:24.844Z,79.50
2023-11-18T00:41:24.849Z,79.71
2023-11-18T00:42:24.776Z,79.74
2023-11-18T00:43:24.838Z,79.95
2023-11-18T00:44:24.788Z,80.26
2023-11-18T00:45:24.757Z,80.26
2023-11-18T00:46:24.818Z,80.26
2023-11-18T00:47:24.762Z,80.36
2023-11-18T00:48:24.745Z,80.47
2023-11-18T00:49:24.850Z,80.68
2023-11-18T00:50:24.708Z,80.78
2023-11-18T00:51:24.703Z,80.82
2023-11-18T00:52:24.732Z,80.71
2023-11-18T00:53:24.688Z,80.82
2023-11-18T00:54:24.634Z,80.92
2023-11-18T00:55:24.649Z,81.02
2023-11-18T00:56:24.661Z,81.23
2023-11-18T00:57:24.638Z,81.34
2023-11-18T00:58:24.675Z,81.34
2023-11-18T00:59:24.610Z,81.16
2023-11-18T01:00:24.600Z,81.68
2023-11-18T01:01:24.633Z,82.20
2023-11-18T01:02:24.681Z,82.20
2023-11-18T01:03:24.671Z,82.10
2023-11-18T01:04:24.529Z,82.10
2023-11-18T01:05:24.520Z,82.31
2023-11-18T01:06:24.526Z,82.20
2023-11-18T01:07:24.538Z,81.99
2023-11-18T01:08:24.512Z,82.10
2023-11-18T01:09:24.461Z,82.41
2023-11-18T01:10:24.466Z,82.41
2023-11-18T01:11:24.477Z,82.20
2023-11-18T01:12:24.428Z,82.31
2023-11-18T01:13:24.456Z,82.41
2023-11-18T01:14:24.455Z,82.31
2023-11-18T01:15:24.412Z,82.24
2023-11-18T01:16:24.413Z,82.34
2023-11-18T01:17:24.409Z,82.65
2023-11-18T01:18:24.452Z,82.86
2023-11-18T01:19:24.362Z,83.01
2023-11-18T01:20:24.367Z,83.11
2023-11-18T01:21:24.363Z,83.42
2023-11-18T01:22:24.366Z,83.53
2023-11-18T01:23:24.310Z,83.42
2023-11-18T01:24:24.317Z,83.42
2023-11-18T01:25:24.297Z,83.63
2023-11-18T01:26:24.285Z,83.53
2023-11-18T01:27:24.258Z,83.53
2023-11-18T01:28:24.295Z,83.42
2023-11-18T01:29:24.254Z,83.53
2023-11-18T01:30:24.235Z,83.32
2023-11-18T01:31:24.227Z,83.53
2023-11-18T01:32:24.397Z,83.73
2023-11-18T01:33:24.282Z,83.73
2023-11-18T01:34:24.238Z,83.63
2023-11-18T01:35:24.173Z,83.63
2023-11-18T01:36:24.208Z,83.63
2023-11-18T01:37:24.158Z,83.63
2023-11-18T01:38:24.132Z,83.63
2023-11-18T01:39:24.128Z,83.53
2023-11-18T01:40:24.153Z,83.53
2023-11-18T01:41:24.130Z,83.42
2023-11-18T01:42:24.122Z,83.32
2023-11-18T01:43:24.104Z,83.32
2023-11-18T01:44:24.095Z,83.42
2023-11-18T01:45:24.092Z,83.53
2023-11-18T01:46:24.139Z,83.63
2023-11-18T01:47:24.060Z,83.63
2023-11-18T01:48:24.039Z,83.63
2023-11-18T01:49:24.017Z,83.53
2023-11-18T01:50:24.025Z,83.53
2023-11-18T01:51:24.057Z,83.42
2023-11-18T01:52:23.994Z,83.42
2023-11-18T01:53:23.968Z,83.42
2023-11-18T01:54:23.976Z,83.32
2023-11-18T01:55:23.974Z,83.42
2023-11-18T01:56:23.965Z,83.22
2023-11-18T01:57:23.921Z,83.22
2023-11-18T01:58:23.958Z,82.90
2023-11-18T01:59:23.915Z,83.01
2023-11-18T02:00:23.914Z,83.01
2023-11-18T02:01:23.948Z,83.32
2023-11-18T02:02:24.127Z,83.22
2023-11-18T02:03:24.126Z,83.32
2023-11-18T02:04:23.995Z,83.22
2023-11-18T02:05:23.944Z,83.22
2023-11-18T02:06:23.829Z,83.22
2023-11-18T02:07:23.844Z,83.22
2023-11-18T02:08:23.828Z,83.11
2023-11-18T02:09:23.810Z,83.11
2023-11-18T02:10:23.812Z,83.11
2023-11-18T02:11:23.774Z,83.42
2023-11-18T02:12:23.802Z,83.32
2023-11-18T02:13:23.743Z,83.32
2023-11-18T02:14:23.763Z,83.42
2023-11-18T02:15:23.777Z,83.46
2023-11-18T02:16:23.724Z,83.46
2023-11-18T02:17:23.696Z,83.56
2023-11-18T02:18:23.770Z,83.56
2023-11-18T02:19:23.695Z,83.67
2023-11-18T02:20:23.724Z,83.98
2023-11-18T02:21:23.673Z,84.01
2023-11-18T02:22:23.658Z,84.12
2023-11-18T02:23:23.642Z,84.22
2023-11-18T02:24:23.620Z,84.64
2023-11-18T02:25:23.682Z,84.95
2023-11-18T02:26:23.623Z,84.84
2023-11-18T02:27:23.714Z,84.64
2023-11-18T02:28:23.600Z,84.84
2023-11-18T02:29:23.661Z,84.84
2023-11-18T02:30:23.550Z,84.84
2023-11-18T02:31:23.614Z,84.95
2023-11-18T02:32:23.567Z,84.95
2023-11-18T02:33:23.682Z,84.95
2023-11-18T02:34:23.532Z,84.95
2023-11-18T02:35:23.521Z,84.95
2023-11-18T02:36:23.500Z,84.84
2023-11-18T02:37:23.522Z,85.05
2023-11-18T02:38:23.511Z,85.16
2023-11-18T02:39:23.486Z,85.05
2023-11-18T02:40:23.452Z,85.05
2023-11-18T02:41:23.435Z,85.26
2023-11-18T02:42:23.429Z,85.36
2023-11-18T02:43:23.442Z,85.16
2023-11-18T02:44:23.395Z,85.10
2023-11-18T02:45:23.422Z,85.20
2023-11-18T02:46:23.411Z,84.99
2023-11-18T02:47:23.364Z,84.99
2023-11-18T02:48:23.427Z,84.99
2023-11-18T02:49:23.348Z,85.20
2023-11-18T02:50:23.355Z,85.20
2023-11-18T02:51:23.326Z,85.41
2023-11-18T02:52:23.316Z,85.30
2023-11-18T02:53:23.336Z,85.20
2023-11-18T02:54:23.298Z,85.20
2023-11-18T02:55:23.272Z,85.30
2023-11-18T02:56:23.273Z,85.41
2023-11-18T02:57:23.241Z,85.61
2023-11-18T02:58:23.298Z,85.72
2023-11-18T02:59:23.266Z,85.72
2023-11-18T03:00:23.342Z,85.61
2023-11-18T03:01:23.221Z,85.61
2023-11-18T03:02:23.261Z,85.41
2023-11-18T03:03:23.298Z,85.61
2023-11-18T03:04:23.232Z,85.51
2023-11-18T03:05:23.179Z,85.30
2023-11-18T03:06:23.154Z,85.20
2023-11-18T03:07:23.148Z,84.99
2023-11-18T03:08:23.157Z,85.10
2023-11-18T03:09:23.145Z,85.20
2023-11-18T03:10:23.486Z,85.41
2023-11-18T03:11:23.092Z,85.61
2023-11-18T03:12:25.054Z,85.51
2023-11-18T03:13:23.074Z,85.51
2023-11-18T03:14:23.096Z,85.55
2023-11-18T03:15:23.536Z,85.55
2023-11-18T03:16:23.089Z,85.65
2023-11-18T03:17:23.135Z,85.75
2023-11-18T03:18:23.003Z,85.65
2023-11-18T03:19:23.011Z,85.75
2023-11-18T03:20:23.014Z,85.75
2023-11-18T03:21:22.990Z,85.86
2023-11-18T03:22:23.018Z,86.07
2023-11-18T03:23:22.958Z,86.00
2023-11-18T03:24:22.941Z,86.00
2023-11-18T03:25:23.377Z,86.00
2023-11-18T03:26:22.940Z,86.21
2023-11-18T03:27:22.948Z,86.42
2023-11-18T03:28:22.902Z,86.73
2023-11-18T03:29:22.888Z,86.83
2023-11-18T03:30:22.918Z,86.83
2023-11-18T03:31:22.885Z,86.83
2023-11-18T03:32:22.837Z,86.83
2023-11-18T03:33:22.850Z,86.94
2023-11-18T03:34:22.919Z,87.04
2023-11-18T03:35:23.001Z,87.04
2023-11-18T03:36:22.837Z,87.01
2023-11-18T03:37:22.806Z,86.90
2023-11-18T03:38:22.769Z,86.69
2023-11-18T03:39:22.797Z,86.59
2023-11-18T03:40:22.751Z,86.49
2023-11-18T03:41:22.757Z,86.49
2023-11-18T03:42:22.744Z,86.49
2023-11-18T03:43:22.725Z,86.38
2023-11-18T03:44:22.704Z,86.49
2023-11-18T03:45:22.727Z,86.38
2023-11-18T03:46:22.739Z,86.38
2023-11-18T03:47:22.689Z,86.49
2023-11-18T03:48:22.654Z,86.38
2023-11-18T03:49:22.680Z,86.27
2023-11-18T03:50:22.659Z,86.17
2023-11-18T03:51:22.657Z,86.17
2023-11-18T03:52:22.637Z,86.07
2023-11-18T03:53:22.592Z,86.07
2023-11-18T03:54:22.621Z,86.17
2023-11-18T03:55:22.581Z,86.13
2023-11-18T03:56:22.596Z,86.13
2023-11-18T03:57:22.558Z,86.03
2023-11-18T03:58:22.549Z,86.13
2023-11-18T03:59:22.546Z,86.13
2023-11-18T04:00:22.564Z,86.03
2023-11-18T04:01:22.563Z,85.82
2023-11-18T04:02:22.596Z,85.61
2023-11-18T04:03:22.492Z,85.72
2023-11-18T04:04:22.536Z,85.82
2023-11-18T04:05:22.523Z,85.72
2023-11-18T04:06:22.484Z,85.51
2023-11-18T04:07:22.484Z,85.61
2023-11-18T04:08:22.448Z,85.51
2023-11-18T04:09:22.451Z,85.51
2023-11-18T04:10:22.424Z,85.61
2023-11-18T04:11:22.445Z,85.61
2023-11-18T04:12:22.402Z,85.72
2023-11-18T04:13:22.407Z,85.82
2023-11-18T04:14:22.362Z,85.93
2023-11-18T04:15:22.374Z,85.93
2023-11-18T04:16:22.395Z,85.93
2023-11-18T04:17:22.518Z,85.82
2023-11-18T04:18:22.360Z,85.82
2023-11-18T04:19:22.342Z,85.72
2023-11-18T04:20:22.306Z,85.82
2023-11-18T04:21:22.327Z,85.72
2023-11-18T04:22:22.270Z,85.68
2023-11-18T04:23:22.280Z,85.68
2023-11-18T04:24:22.257Z,85.57
2023-11-18T04:25:22.277Z,85.68
2023-11-18T04:26:22.241Z,85.68
2023-11-18T04:27:22.222Z,85.68
2023-11-18T04:28:22.270Z,85.68
2023-11-18T04:29:22.200Z,85.68
2023-11-18T04:30:22.205Z,85.68
2023-11-18T04:31:22.213Z,85.78
2023-11-18T04:32:22.164Z,85.78
2023-11-18T04:33:22.169Z,85.68
2023-11-18T04:34:22.135Z,85.78
2023-11-18T04:35:22.142Z,85.88
2023-11-18T04:36:22.133Z,85.78
2023-11-18T04:37:22.154Z,85.78
2023-11-18T04:38:22.124Z,85.88
2023-11-18T04:39:22.072Z,85.68
2023-11-18T04:40:22.092Z,85.57
2023-11-18T04:41:22.086Z,85.53
2023-11-18T04:42:22.082Z,85.53
2023-11-18T04:43:30.880Z,85.43
2023-11-18T04:44:23.079Z,85.33
2023-11-18T04:45:22.022Z,85.22
2023-11-18T04:46:22.025Z,85.12
2023-11-18T04:47:22.073Z,85.12
2023-11-18T04:48:22.103Z,85.02
2023-11-18T04:49:22.069Z,84.91
2023-11-18T04:50:21.965Z,84.81
2023-11-18T04:51:21.959Z,84.95
2023-11-18T04:52:21.993Z,85.16
2023-11-18T04:53:21.955Z,85.16
2023-11-18T04:54:21.963Z,85.16
2023-11-18T04:55:21.900Z,85.16
2023-11-18T04:56:21.883Z,85.41
2023-11-18T04:57:21.897Z,85.61
2023-11-18T04:58:21.902Z,85.61
2023-11-18T04:59:21.874Z,85.72
2023-11-18T05:00:21.869Z,85.82
2023-11-18T05:01:21.893Z,85.93
2023-11-18T05:02:21.912Z,86.03
2023-11-18T05:03:21.934Z,86.34
2023-11-18T05:04:21.818Z,86.44
2023-11-18T05:05:21.802Z,86.34
2023-11-18T05:06:21.801Z,86.38
2023-11-18T05:07:21.765Z,86.49
2023-11-18T05:08:22.010Z,86.49
2023-11-18T05:09:21.745Z,86.80
2023-11-18T05:10:21.769Z,87.01
2023-11-18T05:11:21.756Z,87.11
2023-11-18T05:12:21.764Z,87.11
2023-11-18T05:13:21.705Z,87.11
2023-11-18T05:14:21.689Z,87.11
2023-11-18T05:15:21.695Z,87.21
2023-11-18T05:16:21.716Z,87.11
2023-11-18T05:17:21.747Z,87.21
2023-11-18T05:18:21.703Z,87.21
2023-11-18T05:19:21.645Z,87.11
2023-11-18T05:20:21.637Z,87.21
2023-11-18T05:21:21.635Z,87.21
2023-11-18T05:22:21.616Z,87.21
2023-11-18T05:23:21.602Z,87.32
2023-11-18T05:24:21.572Z,87.21
2023-11-18T05:25:21.619Z,87.21
2023-11-18T05:26:21.572Z,87.32
2023-11-18T05:27:21.550Z,87.32
2023-11-18T05:28:21.540Z,87.32
2023-11-18T05:29:21.515Z,87.42
2023-11-18T05:30:21.537Z,87.32
2023-11-18T05:31:21.535Z,87.32
2023-11-18T05:32:21.485Z,87.21
2023-11-18T05:33:21.524Z,87.21
2023-11-18T05:34:21.461Z,87.25
2023-11-18T05:35:21.481Z,87.32
2023-11-18T05:36:21.427Z,87.11
2023-11-18T05:37:21.469Z,87.11
2023-11-18T05:38:21.419Z,86.90
2023-11-18T05:39:21.423Z,86.90
2023-11-18T05:40:21.401Z,87.01
2023-11-18T05:41:21.392Z,87.01
2023-11-18T05:42:21.364Z,87.01
2023-11-18T05:43:21.397Z,87.01
2023-11-18T05:44:21.385Z,87.11
2023-11-18T05:45:21.329Z,87.15
2023-11-18T05:46:21.737Z,87.25
2023-11-18T05:47:21.341Z,87.25
2023-11-18T05:48:21.310Z,87.25
2023-11-18T05:49:21.335Z,87.25
2023-11-18T05:50:21.321Z,87.25
2023-11-18T05:51:21.326Z,87.32
2023-11-18T05:52:21.247Z,87.21
2023-11-18T05:53:22.890Z,87.11
2023-11-18T05:54:21.265Z,86.90
2023-11-18T05:55:21.214Z,86.90
2023-11-18T05:56:21.248Z,86.80
2023-11-18T05:57:21.245Z,86.69
2023-11-18T05:58:21.193Z,86.73
2023-11-18T05:59:21.192Z,86.94
2023-11-18T06:00:27.469Z,87.04
2023-11-18T06:01:22.264Z,87.15
2023-11-18T06:02:21.204Z,87.25
2023-11-18T06:03:21.299Z,87.46
2023-11-18T06:04:21.181Z,87.56
2023-11-18T06:05:21.135Z,87.92
2023-11-18T06:06:23.791Z,88.02
2023-11-18T06:07:21.105Z,88.12
2023-11-18T06:08:21.085Z,88.33
2023-11-18T06:09:21.053Z,88.43
2023-11-18T06:10:21.062Z,88.43
2023-11-18T06:11:21.172Z,88.40
2023-11-18T06:12:21.031Z,88.29
2023-11-18T06:13:21.020Z,88.09
2023-11-18T06:14:21.056Z,87.98
2023-11-18T06:15:20.991Z,87.88
2023-11-18T06:16:21.021Z,87.77
2023-11-18T06:17:21.101Z,87.77
2023-11-18T06:18:20.989Z,87.66
2023-11-18T06:19:21.011Z,87.77
2023-11-18T06:20:20.938Z,87.77
2023-11-18T06:21:20.981Z,87.66
2023-11-18T06:22:21.989Z,87.66
2023-11-18T06:23:20.919Z,87.66
2023-11-18T06:24:20.903Z,87.56
2023-11-18T06:25:20.922Z,87.56
2023-11-18T06:26:20.878Z,87.66
2023-11-18T06:27:20.861Z,87.52
2023-11-18T06:28:20.863Z,87.32
2023-11-18T06:29:20.875Z,87.32
2023-11-18T06:30:20.886Z,87.21
2023-11-18T06:31:20.840Z,87.11
2023-11-18T06:32:20.922Z,87.01
2023-11-18T06:33:20.850Z,86.90
2023-11-18T06:34:20.785Z,86.90
2023-11-18T06:35:20.778Z,87.01
2023-11-18T06:36:20.780Z,87.01
2023-11-18T06:37:20.741Z,87.01
2023-11-18T06:38:20.794Z,87.01
2023-11-18T06:39:20.722Z,87.11
2023-11-18T06:40:20.723Z,87.21
2023-11-18T06:41:20.784Z,87.21
2023-11-18T06:42:20.692Z,87.21
2023-11-18T06:43:20.717Z,87.21
2023-11-18T06:44:20.729Z,87.21
2023-11-18T06:45:20.667Z,87.21
2023-11-18T06:46:20.662Z,87.11
2023-11-18T06:47:20.838Z,87.11
2023-11-18T06:48:20.634Z,87.11
2023-11-18T06:49:20.714Z,87.11
2023-11-18T06:50:20.685Z,87.11
2023-11-18T06:51:20.584Z,87.11
2023-11-18T06:52:20.604Z,87.11
2023-11-18T06:53:20.630Z,87.11
2023-11-18T06:54:20.562Z,87.01
2023-11-18T06:55:20.575Z,87.01
2023-11-18T06:56:20.575Z,86.90
2023-11-18T06:57:20.562Z,87.01
2023-11-18T06:58:20.526Z,87.11
2023-11-18T06:59:20.533Z,87.21
2023-11-18T07:00:20.522Z,87.11
2023-11-18T07:01:20.562Z,87.21
2023-11-18T07:02:20.508Z,87.21
2023-11-18T07:03:20.548Z,87.32
2023-11-18T07:04:20.482Z,87.46
2023-11-18T07:05:20.535Z,87.46
2023-11-18T07:06:20.418Z,87.46
2023-11-18T07:07:20.415Z,87.56
2023-11-18T07:08:20.424Z,87.56
2023-11-18T07:09:20.432Z,87.56
2023-11-18T07:10:20.433Z,87.42
2023-11-18T07:11:20.376Z,87.42
2023-11-18T07:12:20.406Z,87.32
2023-11-18T07:13:20.341Z,87.32
2023-11-18T07:14:20.420Z,87.11
2023-11-18T07:15:20.379Z,87.11
2023-11-18T07:16:20.426Z,87.21
2023-11-18T07:17:20.357Z,87.11
2023-11-18T07:18:20.327Z,87.07
2023-11-18T07:19:20.280Z,86.96
2023-11-18T07:20:20.318Z,86.96
2023-11-18T07:21:20.277Z,86.76
2023-11-18T07:22:20.231Z,86.55
2023-11-18T07:23:20.315Z,86.44
2023-11-18T07:24:20.213Z,86.34
2023-11-18T07:25:20.216Z,86.24
2023-11-18T07:26:20.254Z,85.99
2023-11-18T07:27:20.223Z,85.99
2023-11-18T07:28:20.175Z,85.99
2023-11-18T07:29:20.210Z,85.88
2023-11-18T07:30:20.161Z,85.78
2023-11-18T07:31:20.394Z,85.88
2023-11-18T07:32:20.155Z,85.78
2023-11-18T07:33:20.160Z,85.57
2023-11-18T07:34:20.141Z,85.57
2023-11-18T07:35:20.231Z,85.57
2023-11-18T07:36:20.117Z,85.47
2023-11-18T07:37:20.069Z,85.53
2023-11-18T07:38:20.126Z,85.43
2023-11-18T07:39:20.110Z,85.43
2023-11-18T07:40:20.069Z,85.43
2023-11-18T07:41:20.037Z,85.53
2023-11-18T07:42:20.036Z,85.53
2023-11-18T07:43:19.982Z,85.33
2023-11-18T07:44:20.050Z,85.33
2023-11-18T07:45:19.992Z,85.33
2023-11-18T07:46:20.028Z,85.33
2023-11-18T07:47:19.992Z,85.22
2023-11-18T07:48:19.964Z,85.22
2023-11-18T07:49:19.955Z,85.08
2023-11-18T07:50:19.962Z,84.88
2023-11-18T07:51:19.932Z,84.77
2023-11-18T07:52:19.904Z,84.67
2023-11-18T07:53:19.943Z,84.56
2023-11-18T07:54:19.889Z,84.25
2023-11-18T07:55:19.871Z,84.05
2023-11-18T07:56:19.907Z,83.69
2023-11-18T07:57:19.845Z,83.69
2023-11-18T07:58:19.859Z,83.69
2023-11-18T07:59:19.908Z,83.59
2023-11-18T08:00:19.791Z,83.48
2023-11-18T08:01:19.868Z,83.63
2023-11-18T08:02:19.908Z,83.63
2023-11-18T08:03:19.809Z,83.59
2023-11-18T08:04:19.799Z,83.48
2023-11-18T08:05:19.813Z,83.28
2023-11-18T08:06:19.760Z,83.17
2023-11-18T08:07:19.794Z,83.28
2023-11-18T08:08:19.820Z,83.07
2023-11-18T08:09:19.709Z,82.93
2023-11-18T08:10:20.589Z,82.82
2023-11-18T08:11:19.701Z,82.51
2023-11-18T08:12:19.664Z,82.51
2023-11-18T08:13:19.745Z,82.51
2023-11-18T08:14:19.679Z,82.41
2023-11-18T08:15:19.644Z,82.27
2023-11-18T08:16:19.709Z,82.17
2023-11-18T08:17:19.668Z,81.96
2023-11-18T08:18:19.659Z,81.75
2023-11-18T08:19:19.595Z,81.75
2023-11-18T08:20:19.590Z,81.51
2023-11-18T08:21:19.570Z,81.09
2023-11-18T08:22:19.541Z,80.88
2023-11-18T08:23:19.616Z,80.54
2023-11-18T08:24:19.536Z,80.33
2023-11-18T08:25:19.503Z,79.91
2023-11-18T08:26:19.545Z,79.88
2023-11-18T08:27:19.523Z,79.57
2023-11-18T08:28:19.522Z,79.36
2023-11-18T08:29:19.525Z,79.26
2023-11-18T08:30:19.601Z,79.16
2023-11-18T08:31:19.487Z,78.91
2023-11-18T08:32:19.443Z,78.70
2023-11-18T08:33:19.516Z,78.25
2023-11-18T08:34:19.450Z,78.05
2023-11-18T08:35:19.466Z,77.50
2023-11-18T08:36:19.413Z,77.29
2023-11-18T08:37:19.402Z,77.33
2023-11-18T08:38:19.450Z,77.43
2023-11-18T08:39:19.347Z,77.74
2023-11-18T08:40:19.377Z,78.05
2023-11-18T08:41:19.353Z,78.05
2023-11-18T08:42:19.338Z,77.94
2023-11-18T08:43:19.330Z,78.05
2023-11-18T08:44:24.141Z,77.84
2023-11-18T08:45:20.321Z,77.74
2023-11-18T08:46:19.392Z,78.05
2023-11-18T08:47:19.267Z,77.84
2023-11-18T08:48:19.251Z,77.74
2023-11-18T08:49:19.246Z,77.84
2023-11-18T08:50:19.239Z,78.08
2023-11-18T08:51:19.223Z,78.25
2023-11-18T08:52:19.205Z,78.15
2023-11-18T08:53:19.925Z,78.05
2023-11-18T08:54:19.232Z,77.84
2023-11-18T08:55:19.256Z,77.74
2023-11-18T08:56:19.224Z,77.53
2023-11-18T08:57:19.138Z,77.43
2023-11-18T08:58:19.130Z,77.43
2023-11-18T08:59:19.189Z,77.39
2023-11-18T09:00:19.100Z,77.29
2023-11-18T09:01:19.161Z,77.04
2023-11-18T09:02:19.136Z,76.73
2023-11-18T09:03:19.316Z,76.43
2023-11-18T09:04:19.197Z,76.39
2023-11-18T09:05:19.068Z,76.08
2023-11-18T09:06:19.669Z,75.57
2023-11-18T09:07:19.038Z,75.22
2023-11-18T09:08:19.034Z,75.12
2023-11-18T09:09:19.042Z,75.01
2023-11-18T09:10:18.991Z,74.91
2023-11-18T09:11:19.055Z,74.60
2023-11-18T09:12:18.956Z,74.60
2023-11-18T09:13:18.952Z,74.60
2023-11-18T09:14:18.997Z,74.57
2023-11-18T09:15:18.946Z,74.26
2023-11-18T09:16:18.940Z,74.15
2023-11-18T09:17:19.016Z,74.05
2023-11-18T09:18:18.965Z,74.05
2023-11-18T09:19:18.897Z,73.95
2023-11-18T09:20:18.944Z,73.64
2023-11-18T09:21:18.883Z,73.50
2023-11-18T09:22:18.862Z,73.40
2023-11-18T09:23:18.931Z,73.22
2023-11-18T09:24:18.875Z,73.74
2023-11-18T09:25:18.824Z,74.05
2023-11-18T09:26:19.014Z,73.85
2023-11-18T09:27:18.790Z,73.74
2023-11-18T09:28:18.812Z,73.54
2023-11-18T09:29:18.852Z,73.64
2023-11-18T09:30:18.789Z,73.43
2023-11-18T09:31:18.775Z,73.09
2023-11-18T09:32:18.788Z,72.99
2023-11-18T09:33:18.737Z,72.78
2023-11-18T09:34:18.761Z,72.58
2023-11-18T09:35:18.732Z,72.44
2023-11-18T09:36:18.698Z,71.99
2023-11-18T09:37:18.671Z,71.03
2023-11-18T09:38:18.709Z,70.62
2023-11-18T09:39:18.703Z,70.52
2023-11-18T09:40:18.662Z,70.52
2023-11-18T09:41:18.800Z,70.21
2023-11-18T09:42:18.636Z,69.94
2023-11-18T09:43:18.595Z,68.77
2023-11-18T09:44:18.668Z,67.35
2023-11-18T09:45:18.581Z,66.08
2023-11-18T09:46:18.757Z,65.47
2023-11-18T09:47:18.594Z,64.82
2023-11-18T09:48:18.543Z,64.61
2023-11-18T09:49:18.598Z,64.88
2023-11-18T09:50:18.564Z,66.25
2023-11-18T09:51:18.559Z,67.44
2023-11-18T09:52:18.528Z,68.29
2023-11-18T09:53:18.533Z,69.15
2023-11-18T09:54:18.490Z,69.56
2023-11-18T09:55:18.475Z,69.66
2023-11-18T09:56:18.584Z,69.87
2023-11-18T09:57:18.470Z,69.76
2023-11-18T09:58:18.428Z,70.07
2023-11-18T09:59:18.460Z,69.97
2023-11-18T10:00:18.432Z,70.10
2023-11-18T10:01:18.418Z,70.21
2023-11-18T10:02:18.461Z,70.31
2023-11-18T10:03:18.452Z,70.42
2023-11-18T10:04:18.451Z,70.38
2023-11-18T10:05:18.415Z,70.38
2023-11-18T10:06:18.367Z,70.18
2023-11-18T10:07:18.347Z,69.84
2023-11-18T10:08:18.386Z,69.53
2023-11-18T10:09:18.328Z,69.22
2023-11-18T10:10:18.338Z,68.88
2023-11-18T10:11:18.325Z,68.23
2023-11-18T10:12:18.277Z,67.79
2023-11-18T10:13:18.329Z,67.24
2023-11-18T10:14:18.353Z,66.36
2023-11-18T10:15:18.319Z,64.86
2023-11-18T10:16:18.236Z,64.22
2023-11-18T10:17:18.258Z,62.62
2023-11-18T10:18:18.336Z,61.57
2023-11-18T10:19:18.182Z,61.13
2023-11-18T10:20:18.247Z,59.80
2023-11-18T10:21:18.200Z,60.44
2023-11-18T10:22:18.169Z,60.96
2023-11-18T10:23:18.210Z,60.52
2023-11-18T10:24:18.138Z,60.72
2023-11-18T10:25:18.154Z,60.55
2023-11-18T10:26:18.146Z,60.62
2023-11-18T10:27:18.141Z,59.88
2023-11-18T10:28:18.087Z,59.37
2023-11-18T10:29:18.115Z,59.70
2023-11-18T10:30:18.087Z,59.50
2023-11-18T10:31:18.062Z,59.57
2023-11-18T10:32:18.093Z,59.06
2023-11-18T10:33:18.087Z,58.65
2023-11-18T10:34:18.104Z,57.84
2023-11-18T10:35:18.144Z,56.74
2023-11-18T10:36:18.018Z,56.87
2023-11-18T10:37:18.003Z,57.17
2023-11-18T10:38:18.071Z,57.61
2023-11-18T10:39:17.979Z,58.02
2023-11-18T10:40:17.994Z,57.84
2023-11-18T10:41:18.112Z,58.07
2023-11-18T10:42:17.950Z,58.69
2023-11-18T10:43:17.942Z,58.69
2023-11-18T10:44:17.950Z,58.69
2023-11-18T10:45:17.970Z,58.28
2023-11-18T10:46:18.048Z,58.07
2023-11-18T10:47:17.926Z,58.58
2023-11-18T10:48:18.195Z,58.38
2023-11-18T10:49:17.883Z,58.20
2023-11-18T10:50:17.885Z,58.40
2023-11-18T10:51:17.908Z,58.72
2023-11-18T10:52:17.840Z,58.72
2023-11-18T10:53:17.862Z,58.07
2023-11-18T10:54:17.834Z,57.64
2023-11-18T10:55:17.800Z,56.79
2023-11-18T10:56:17.887Z,56.48
2023-11-18T10:57:17.786Z,56.18
2023-11-18T10:58:17.772Z,55.87
2023-11-18T10:59:17.868Z,55.74
2023-11-18T11:00:17.756Z,55.71
2023-11-18T11:01:17.791Z,55.08
2023-11-18T11:02:17.796Z,54.54
2023-11-18T11:03:17.730Z,53.70
2023-11-18T11:04:17.706Z,52.86
2023-11-18T11:05:21.290Z,52.62
2023-11-18T11:06:18.749Z,52.09
2023-11-18T11:07:17.672Z,51.56
2023-11-18T11:08:26.679Z,51.25
2023-11-18T11:09:18.658Z,51.35
2023-11-18T11:10:17.782Z,50.42
2023-11-18T11:11:17.699Z,50.72
2023-11-18T11:12:17.641Z,50.59
2023-11-18T11:13:17.624Z,50.09
2023-11-18T11:14:17.610Z,50.26
2023-11-18T11:15:17.560Z,50.14
2023-11-18T11:16:17.701Z,49.55
2023-11-18T11:17:19.957Z,49.96
2023-11-18T11:18:18.630Z,49.65
2023-11-18T11:19:17.511Z,49.76
2023-11-18T11:20:17.529Z,49.95
2023-11-18T11:21:18.032Z,51.17
2023-11-18T11:22:17.471Z,50.97
2023-11-18T11:23:20.222Z,51.32
2023-11-18T11:24:17.458Z,51.81
2023-11-18T11:25:17.455Z,51.91
2023-11-18T11:26:17.494Z,51.07
2023-11-18T11:27:17.460Z,50.44
2023-11-18T11:28:17.481Z,49.90
2023-11-18T11:29:19.444Z,49.58
2023-11-18T11:30:17.410Z,48.94
2023-11-18T11:31:17.479Z,48.74
2023-11-18T11:32:17.416Z,48.82
2023-11-18T11:33:17.351Z,48.92
2023-11-18T11:34:17.430Z,48.49
2023-11-18T11:35:17.410Z,48.36
2023-11-18T11:36:17.513Z,47.33
2023-11-18T11:37:17.300Z,47.25
2023-11-18T11:38:17.359Z,47.05
2023-11-18T11:39:20.166Z,47.02
2023-11-18T11:40:17.321Z,46.70
2023-11-18T11:41:17.307Z,46.39
2023-11-18T11:42:17.262Z,45.97
2023-11-18T11:43:17.242Z,45.86
2023-11-18T11:44:17.311Z,45.56
2023-11-18T11:45:17.214Z,46.17
2023-11-18T11:46:17.278Z,46.06
2023-11-18T11:47:17.515Z,45.46
2023-11-18T11:48:17.326Z,45.68
2023-11-18T11:49:17.180Z,45.97
2023-11-18T11:50:17.186Z,45.15
2023-11-18T11:51:17.180Z,45.48
2023-11-18T11:52:17.132Z,46.11
2023-11-18T11:53:17.165Z,46.01
2023-11-18T11:54:17.147Z,46.51
2023-11-18T11:55:17.109Z,45.89
2023-11-18T11:56:17.221Z,45.89
2023-11-18T11:57:17.089Z,45.97
2023-11-18T11:58:17.070Z,45.15
2023-11-18T11:59:17.113Z,45.78
2023-11-18T12:00:17.336Z,45.37
2023-11-18T12:01:17.076Z,45.52
2023-11-18T12:02:17.239Z,46.44
2023-11-18T12:03:17.075Z,46.37
2023-11-18T12:04:17.060Z,46.81
2023-11-18T12:05:17.051Z,47.52
2023-11-18T12:06:17.014Z,47.52
2023-11-18T12:07:20.806Z,47.31
2023-11-18T12:08:16.993Z,47.21
2023-11-18T12:09:16.970Z,47.42
2023-11-18T12:10:16.999Z,47.54
2023-11-18T12:11:17.050Z,47.54
2023-11-18T12:12:16.942Z,47.95
2023-11-18T12:13:16.919Z,47.82
2023-11-18T12:14:16.967Z,47.62
2023-11-18T12:15:16.928Z,47.19
2023-11-18T12:16:16.927Z,46.68
2023-11-18T12:17:16.906Z,46.05
2023-11-18T12:18:16.904Z,45.84
2023-11-18T12:19:16.895Z,45.99
2023-11-18T12:20:16.908Z,47.03
2023-11-18T12:21:16.826Z,48.10
2023-11-18T12:22:16.830Z,48.93
2023-11-18T12:23:17.260Z,49.26
2023-11-18T12:24:16.793Z,49.49
2023-11-18T12:25:16.813Z,49.59
2023-11-18T12:26:16.878Z,49.67
2023-11-18T12:27:16.751Z,49.67
2023-11-18T12:28:16.763Z,49.67
2023-11-18T12:29:16.762Z,49.46
2023-11-18T12:30:16.783Z,49.62
2023-11-18T12:31:16.804Z,50.04
2023-11-18T12:32:16.749Z,50.99
2023-11-18T12:33:16.744Z,51.32
2023-11-18T12:34:16.661Z,51.83
2023-11-18T12:35:16.720Z,52.16
2023-11-18T12:36:16.638Z,52.26
2023-11-18T12:37:16.627Z,52.57
2023-11-18T12:38:16.683Z,52.90
2023-11-18T12:39:16.626Z,53.31
2023-11-18T12:40:16.611Z,53.44
2023-11-18T12:41:16.622Z,53.92
2023-11-18T12:42:16.580Z,53.44
2023-11-18T12:43:16.575Z,53.85
2023-11-18T12:44:16.603Z,54.38
2023-11-18T12:45:16.547Z,54.38
2023-11-18T12:46:16.583Z,54.92
2023-11-18T12:47:16.566Z,54.92
2023-11-18T12:48:16.566Z,55.23
2023-11-18T12:49:16.490Z,55.13
2023-11-18T12:50:16.554Z,55.13
2023-11-18T12:51:16.511Z,55.23
2023-11-18T12:52:16.489Z,55.64